createdAt,value
2022-10-17T00:01:03.534Z,15.95
2022-10-17T00:03:31.260Z,17.65
2022-10-17T00:05:59.007Z,15.07
2022-10-17T00:08:26.440Z,15.68
2022-10-17T00:11:03.292Z,15.35
2022-10-17T00:13:31.064Z,13.98
2022-10-17T00:15:58.986Z,15.32
2022-10-17T00:18:27.033Z,15.38
2022-10-17T00:20:54.492Z,13.98
2022-10-17T00:23:22.243Z,15.40
2022-10-17T00:26:03.846Z,15.82
2022-10-17T00:28:33.353Z,14.98
2022-10-17T00:31:03.939Z,16.27
2022-10-17T00:33:32.214Z,16.42
2022-10-17T00:36:15.800Z,15.23
2022-10-17T00:38:45.348Z,16.17
2022-10-17T00:41:16.326Z,16.20
2022-10-17T00:44:08.215Z,16.38
2022-10-17T00:46:37.920Z,16.13
2022-10-17T00:49:09.835Z,16.15
2022-10-17T00:51:42.412Z,16.33
2022-10-17T00:54:13.903Z,16.73
2022-10-17T00:56:41.950Z,17.35
2022-10-17T00:59:12.435Z,18.05
2022-10-17T01:01:42.000Z,16.83
2022-10-17T01:04:10.976Z,16.88
2022-10-17T01:06:40.235Z,15.98
2022-10-17T01:09:07.809Z,16.70
2022-10-17T01:11:41.683Z,17.50
2022-10-17T01:14:30.307Z,17.13
2022-10-17T01:17:11.911Z,16.88
2022-10-17T01:20:20.192Z,16.33
2022-10-17T01:22:59.193Z,16.10
2022-10-17T01:25:38.251Z,18.00
2022-10-17T01:28:24.261Z,16.35
2022-10-17T01:31:15.992Z,17.05
2022-10-17T01:34:00.361Z,16.83
2022-10-17T01:36:39.984Z,17.42
2022-10-17T01:39:26.958Z,16.73
2022-10-17T01:42:03.606Z,17.33
2022-10-17T01:44:54.157Z,17.13
2022-10-17T01:47:26.926Z,16.15
2022-10-17T01:50:01.649Z,18.00
2022-10-17T01:52:38.800Z,16.40
2022-10-17T01:55:23.681Z,17.35
2022-10-17T02:00:27.670Z,16.65
2022-10-17T02:03:00.251Z,15.82
2022-10-17T02:05:39.117Z,16.70
2022-10-17T02:08:07.219Z,15.95
2022-10-17T02:11:02.365Z,16.50
2022-10-17T02:13:51.436Z,15.98
2022-10-17T02:16:37.344Z,17.35
2022-10-17T02:19:20.045Z,17.30
2022-10-17T02:22:04.289Z,17.65
2022-10-17T02:24:53.080Z,17.23
2022-10-17T02:27:47.907Z,17.63
2022-10-17T02:30:36.723Z,16.75
2022-10-17T02:33:14.452Z,17.48
2022-10-17T02:35:47.503Z,16.13
2022-10-17T02:38:16.497Z,16.95
2022-10-17T02:40:46.029Z,17.55
2022-10-17T02:43:14.932Z,17.90
2022-10-17T02:45:42.445Z,17.15
2022-10-17T02:48:22.510Z,17.10
2022-10-17T02:51:12.418Z,16.75
2022-10-17T02:53:59.041Z,16.90
2022-10-17T02:56:31.053Z,16.60
2022-10-17T02:59:01.271Z,17.42
2022-10-17T03:01:30.977Z,17.38
2022-10-17T03:04:10.122Z,17.88
2022-10-17T03:06:38.669Z,19.45
2022-10-17T03:09:07.152Z,18.17
2022-10-17T03:11:37.232Z,19.23
2022-10-17T03:14:04.907Z,18.83
2022-10-17T03:16:32.754Z,18.55
2022-10-17T03:19:00.505Z,18.10
2022-10-17T03:21:28.150Z,18.85
2022-10-17T03:23:56.594Z,17.80
2022-10-17T03:26:24.861Z,17.70
2022-10-17T03:28:54.490Z,16.98
2022-10-17T03:31:23.479Z,16.40
2022-10-17T03:33:52.650Z,16.48
2022-10-17T03:36:20.459Z,17.67
2022-10-17T03:38:48.505Z,18.55
2022-10-17T03:41:17.964Z,18.85
2022-10-17T03:43:45.463Z,19.92
2022-10-17T03:46:13.233Z,18.98
2022-10-17T03:48:40.852Z,19.50
2022-10-17T03:51:09.653Z,19.42
2022-10-17T03:53:47.975Z,20.60
2022-10-17T03:56:21.861Z,19.33
2022-10-17T03:58:58.147Z,20.35
2022-10-17T04:01:25.770Z,20.83
2022-10-17T04:03:55.112Z,20.90
2022-10-17T04:06:23.388Z,21.55
2022-10-17T04:08:51.187Z,20.48
2022-10-17T04:11:25.744Z,20.17
2022-10-17T04:13:59.316Z,20.38
2022-10-17T04:16:28.505Z,21.17
2022-10-17T04:19:03.204Z,22.80
2022-10-17T04:21:40.512Z,23.25
2022-10-17T04:24:11.213Z,23.90
2022-10-17T04:26:58.922Z,23.63
2022-10-17T04:29:40.899Z,24.33
2022-10-17T04:32:17.184Z,23.90
2022-10-17T04:34:50.189Z,22.45
2022-10-17T04:37:19.062Z,24.15
2022-10-17T04:39:48.078Z,21.85
2022-10-17T04:42:15.594Z,23.92
2022-10-17T04:44:43.175Z,23.65
2022-10-17T04:47:11.071Z,23.73
2022-10-17T04:52:13.108Z,23.05
2022-10-17T04:54:43.715Z,24.25
2022-10-17T04:57:13.971Z,25.58
2022-10-17T04:59:44.485Z,26.08
2022-10-17T05:02:30.775Z,26.10
2022-10-17T05:04:59.474Z,26.58
2022-10-17T05:07:27.028Z,28.05
2022-10-17T05:10:03.731Z,26.90
2022-10-17T05:12:32.883Z,27.98
2022-10-17T05:15:02.022Z,27.75
2022-10-17T05:17:31.573Z,30.55
2022-10-17T05:19:59.140Z,28.45
2022-10-17T05:22:26.992Z,27.23
2022-10-17T05:24:56.071Z,25.83
2022-10-17T05:27:24.343Z,24.88
2022-10-17T05:29:53.791Z,25.88
2022-10-17T05:32:27.839Z,26.00
2022-10-17T05:34:56.134Z,25.05
2022-10-17T05:37:25.932Z,26.30
2022-10-17T05:39:59.451Z,26.43
2022-10-17T05:42:27.845Z,25.27
2022-10-17T05:44:56.828Z,25.30
2022-10-17T05:47:24.501Z,25.17
2022-10-17T05:49:54.412Z,24.20
2022-10-17T05:52:28.301Z,24.80
2022-10-17T05:55:08.794Z,24.13
2022-10-17T05:57:36.375Z,22.67
2022-10-17T06:00:07.786Z,22.88
2022-10-17T06:02:50.818Z,22.77
2022-10-17T06:05:20.756Z,21.60
2022-10-17T06:07:50.203Z,22.98
2022-10-17T06:10:18.973Z,22.85
2022-10-17T06:12:46.780Z,21.75
2022-10-17T06:15:15.648Z,22.05
2022-10-17T06:17:47.565Z,22.08
2022-10-17T06:20:15.244Z,22.50
2022-10-17T06:22:45.496Z,21.85
2022-10-17T06:25:18.865Z,20.08
2022-10-17T06:27:46.571Z,19.08
2022-10-17T06:30:14.244Z,20.52
2022-10-17T06:32:42.003Z,17.90
2022-10-17T06:35:09.615Z,18.42
2022-10-17T06:37:37.859Z,17.42
2022-10-17T06:40:10.544Z,16.48
2022-10-17T06:42:39.559Z,15.52
2022-10-17T06:45:27.431Z,16.67
2022-10-17T06:48:09.577Z,16.63
2022-10-17T06:51:12.766Z,14.77
2022-10-17T06:53:48.668Z,13.13
2022-10-17T06:56:36.754Z,13.80
2022-10-17T06:59:30.031Z,13.50
2022-10-17T07:02:24.278Z,11.65
2022-10-17T07:04:53.399Z,10.27
2022-10-17T07:07:20.996Z,9.82
2022-10-17T07:09:51.525Z,10.30
2022-10-17T08:52:42.815Z,7.90
2022-10-17T09:16:32.586Z,6.93
2022-10-17T09:19:25.189Z,6.93
2022-10-17T09:22:01.747Z,6.70
2022-10-17T09:24:39.322Z,6.18
2022-10-17T09:27:34.103Z,6.40
2022-10-17T09:30:40.139Z,6.40
2022-10-17T09:33:23.351Z,6.47
2022-10-17T09:36:04.365Z,6.93
2022-10-17T09:38:39.817Z,6.47
2022-10-17T09:41:43.063Z,6.22
2022-10-17T09:44:18.524Z,6.47
2022-10-17T09:47:11.480Z,6.35
2022-10-17T09:49:42.239Z,6.50
2022-10-17T09:52:39.619Z,5.90
2022-10-17T09:55:21.087Z,5.95
2022-10-17T09:58:03.813Z,6.82
2022-10-17T10:00:38.059Z,6.18
2022-10-17T10:03:09.518Z,5.88
2022-10-17T10:05:37.169Z,6.50
2022-10-17T10:08:12.733Z,5.53
2022-10-17T10:10:43.742Z,5.53
2022-10-17T10:13:13.922Z,5.78
2022-10-17T10:15:41.452Z,6.20
2022-10-17T10:18:27.188Z,5.82
2022-10-17T10:21:14.758Z,5.45
2022-10-17T10:23:44.579Z,5.35
2022-10-17T10:26:25.821Z,5.55
2022-10-17T10:28:55.990Z,5.45
2022-10-17T10:31:29.375Z,5.03
2022-10-17T10:33:58.727Z,5.50
2022-10-17T10:36:26.415Z,5.25
2022-10-17T10:39:01.297Z,6.03
2022-10-17T10:41:47.499Z,5.90
2022-10-17T10:46:43.661Z,5.70
2022-10-17T10:49:29.831Z,5.35
2022-10-17T10:52:00.555Z,6.07
2022-10-17T10:54:34.269Z,5.10
2022-10-17T10:57:07.309Z,5.07
2022-10-17T10:59:46.580Z,5.72
2022-10-17T11:02:46.104Z,5.50
2022-10-17T11:05:29.012Z,5.78
2022-10-17T11:08:06.045Z,5.40
2022-10-17T11:10:44.510Z,5.55
2022-10-17T11:13:19.088Z,5.43
2022-10-17T11:16:04.769Z,5.63
2022-10-17T11:18:47.524Z,5.07
2022-10-17T11:21:29.279Z,5.20
2022-10-17T11:24:06.872Z,5.65
2022-10-17T11:26:45.184Z,5.25
2022-10-17T11:29:13.799Z,5.25
2022-10-17T11:31:48.601Z,5.28
2022-10-17T11:34:27.438Z,5.38
2022-10-17T11:37:01.265Z,4.95
2022-10-17T11:42:19.936Z,5.80
2022-10-17T11:44:52.438Z,5.47
2022-10-17T11:48:02.956Z,5.00
2022-10-17T11:53:31.191Z,5.22
2022-10-17T11:56:00.930Z,5.50
2022-10-17T11:58:48.271Z,5.07
2022-10-17T12:01:19.277Z,5.72
2022-10-17T12:03:59.569Z,6.88
2022-10-17T12:06:39.205Z,5.53
2022-10-17T12:09:37.184Z,5.25
2022-10-17T12:12:04.883Z,6.00
2022-10-17T12:14:47.484Z,5.40
2022-10-17T12:17:23.327Z,4.67
2022-10-17T12:19:51.395Z,5.05
2022-10-17T12:22:23.151Z,4.82
2022-10-17T12:25:02.651Z,5.55
2022-10-17T12:27:43.723Z,4.97
2022-10-17T12:30:19.693Z,4.63
2022-10-17T12:33:05.682Z,4.82
2022-10-17T12:35:35.833Z,4.70
2022-10-17T12:38:20.319Z,5.43
2022-10-17T12:40:52.965Z,4.75
2022-10-17T12:43:29.501Z,4.30
2022-10-17T12:45:58.565Z,4.85
2022-10-17T12:48:38.414Z,5.00
2022-10-17T12:51:34.658Z,4.97
2022-10-17T12:54:12.763Z,4.35
2022-10-17T12:56:49.458Z,4.93
2022-10-17T12:59:28.514Z,4.90
2022-10-17T13:02:00.763Z,4.38
2022-10-17T13:04:30.629Z,4.63
2022-10-17T13:07:00.693Z,4.35
2022-10-17T13:09:31.508Z,4.65
2022-10-17T13:12:03.164Z,5.05
2022-10-17T13:14:33.291Z,4.32
2022-10-17T13:17:00.771Z,5.30
2022-10-17T13:19:42.922Z,4.88
2022-10-17T13:22:16.569Z,4.80
2022-10-17T13:24:44.296Z,5.03
2022-10-17T13:27:32.655Z,4.60
2022-10-17T13:30:02.567Z,4.60
2022-10-17T13:32:40.775Z,5.20
2022-10-17T13:35:12.266Z,5.10
2022-10-17T13:37:47.346Z,4.70
2022-10-17T13:40:44.603Z,5.10
2022-10-17T13:45:49.683Z,4.90
2022-10-17T13:48:29.958Z,4.78
2022-10-17T13:51:04.484Z,5.10
2022-10-17T13:53:35.257Z,5.07
2022-10-17T13:56:30.115Z,4.95
2022-10-17T13:59:01.463Z,5.07
2022-10-17T14:01:29.658Z,4.75
2022-10-17T14:04:08.342Z,4.30
2022-10-17T14:06:47.686Z,4.65
2022-10-17T14:09:25.431Z,5.03
2022-10-17T14:12:16.584Z,5.00
2022-10-17T14:15:13.007Z,5.32
2022-10-17T14:17:38.558Z,4.65
2022-10-17T14:20:57.175Z,7.38
2022-10-17T14:23:21.413Z,5.13
2022-10-17T14:25:44.551Z,4.78
2022-10-17T14:28:12.598Z,5.80
2022-10-17T14:30:57.164Z,6.03
2022-10-17T14:33:31.362Z,5.28
2022-10-17T14:36:01.598Z,4.63
2022-10-17T14:38:30.168Z,5.30
2022-10-17T14:44:07.048Z,5.22
2022-10-17T14:46:36.649Z,5.05
2022-10-17T14:49:25.092Z,4.80
2022-10-17T14:52:17.732Z,5.05
2022-10-17T14:54:49.747Z,6.90
2022-10-17T14:57:22.037Z,5.25
2022-10-17T14:59:55.202Z,5.07
2022-10-17T15:02:24.983Z,5.68
2022-10-17T15:04:52.976Z,11.27
2022-10-17T15:07:24.120Z,18.73
2022-10-17T15:09:53.990Z,9.32
2022-10-17T15:12:24.784Z,7.22
2022-10-17T15:14:55.741Z,6.57
2022-10-17T15:17:30.540Z,6.60
2022-10-17T15:19:59.033Z,6.40
2022-10-17T15:22:26.852Z,7.80
2022-10-17T15:24:54.399Z,6.65
2022-10-17T15:27:24.103Z,6.28
2022-10-17T15:29:53.079Z,6.97
2022-10-17T15:32:20.731Z,6.07
2022-10-17T15:34:48.238Z,6.55
2022-10-17T15:37:25.633Z,6.53
2022-10-17T15:39:54.908Z,5.95
2022-10-17T15:42:26.803Z,8.20
2022-10-17T15:44:57.961Z,7.03
2022-10-17T15:47:34.105Z,6.22
2022-10-17T15:50:03.167Z,5.85
2022-10-17T15:52:30.840Z,6.72
2022-10-17T15:55:00.955Z,6.47
2022-10-17T15:57:37.983Z,5.57
2022-10-17T16:00:16.358Z,6.15
2022-10-17T16:02:44.996Z,6.00
2022-10-17T16:05:18.703Z,6.93
2022-10-17T16:07:46.851Z,7.13
2022-10-17T16:10:16.167Z,7.70
2022-10-17T16:12:43.797Z,6.97
2022-10-17T16:15:16.910Z,6.90
2022-10-17T16:17:44.963Z,7.60
2022-10-17T16:20:14.101Z,6.97
2022-10-17T16:22:44.143Z,7.97
2022-10-17T16:25:39.342Z,8.30
2022-10-17T16:28:08.497Z,8.55
2022-10-17T16:30:43.020Z,7.78
2022-10-17T16:33:11.212Z,8.85
2022-10-17T16:35:38.881Z,9.18
2022-10-17T16:38:08.000Z,8.18
2022-10-17T16:40:38.688Z,7.68
2022-10-17T16:43:06.595Z,7.80
2022-10-17T16:45:34.164Z,7.72
2022-10-17T16:48:01.652Z,9.18
2022-10-17T16:50:31.210Z,9.77
2022-10-17T16:52:59.083Z,8.98
2022-10-17T16:55:26.743Z,9.63
2022-10-17T16:57:54.163Z,9.73
2022-10-17T17:00:21.684Z,9.50
2022-10-17T17:02:49.364Z,9.45
2022-10-17T17:05:16.918Z,8.52
2022-10-17T17:07:45.450Z,8.73
2022-10-17T17:10:13.065Z,8.55
2022-10-17T17:12:40.553Z,10.98
2022-10-17T17:15:08.303Z,10.77
2022-10-17T17:17:54.957Z,9.30
2022-10-17T17:20:23.483Z,9.18
2022-10-17T17:22:52.320Z,9.77
2022-10-17T17:25:20.002Z,9.27
2022-10-17T17:27:47.548Z,11.25
2022-10-17T17:30:15.825Z,10.73
2022-10-17T17:32:43.424Z,10.10
2022-10-17T17:35:10.968Z,9.85
2022-10-17T17:37:38.524Z,10.43
2022-10-17T17:40:12.394Z,11.23
2022-10-17T17:42:39.921Z,10.63
2022-10-17T17:45:08.021Z,10.45
2022-10-17T17:47:35.590Z,11.55
2022-10-17T17:50:03.658Z,10.32
2022-10-17T17:52:31.591Z,11.52
2022-10-17T17:54:59.461Z,11.70
2022-10-17T17:57:29.481Z,12.40
2022-10-17T17:59:57.097Z,12.27
2022-10-17T18:02:24.628Z,14.65
2022-10-17T18:04:52.134Z,13.43
2022-10-17T18:07:19.669Z,10.95
2022-10-17T18:09:49.166Z,11.77
2022-10-17T18:12:16.845Z,11.00
2022-10-17T18:14:44.310Z,10.93
2022-10-17T18:17:11.860Z,10.93
2022-10-17T18:19:39.622Z,11.55
2022-10-17T18:22:07.424Z,9.93
2022-10-17T18:24:36.291Z,11.15
2022-10-17T18:27:04.193Z,10.95
2022-10-17T18:29:32.776Z,9.82
2022-10-17T18:32:00.409Z,10.18
2022-10-17T18:34:27.948Z,10.52
2022-10-17T18:36:55.568Z,10.85
2022-10-17T18:39:23.273Z,10.25
2022-10-17T18:41:50.914Z,10.55
2022-10-17T18:44:18.531Z,10.18
2022-10-17T18:46:46.992Z,11.20
2022-10-17T18:49:18.973Z,10.73
2022-10-17T18:51:46.884Z,11.13
2022-10-17T18:54:20.454Z,10.75
2022-10-17T18:56:51.029Z,10.90
2022-10-17T18:59:19.693Z,10.85
2022-10-17T19:01:48.017Z,11.00
2022-10-17T19:04:15.867Z,10.68
2022-10-17T19:06:44.545Z,11.98
2022-10-17T19:09:13.666Z,12.02
2022-10-17T19:11:42.174Z,11.60
2022-10-17T19:14:15.032Z,11.55
2022-10-17T19:16:46.597Z,11.30
2022-10-17T19:19:16.205Z,11.80
2022-10-17T19:21:44.370Z,12.45
2022-10-17T19:24:17.833Z,11.23
2022-10-17T19:26:46.830Z,11.63
2022-10-17T19:29:15.984Z,11.88
2022-10-17T19:31:44.558Z,11.73
2022-10-17T19:34:13.213Z,11.95
2022-10-17T19:36:41.214Z,12.45
2022-10-17T19:39:15.876Z,12.20
2022-10-17T19:41:45.183Z,12.32
2022-10-17T19:44:13.192Z,13.18
2022-10-17T19:46:40.974Z,12.63
2022-10-17T19:49:08.484Z,12.48
2022-10-17T19:51:36.054Z,12.25
2022-10-17T19:54:04.025Z,12.32
2022-10-17T19:56:33.865Z,13.05
2022-10-17T19:59:01.541Z,11.85
2022-10-17T20:01:33.224Z,12.40
2022-10-17T20:04:00.955Z,12.70
2022-10-17T20:06:28.490Z,13.32
2022-10-17T20:08:56.632Z,13.25
2022-10-17T20:11:26.991Z,12.95
2022-10-17T20:13:55.808Z,12.82
2022-10-17T20:16:25.644Z,13.25
2022-10-17T20:18:55.644Z,12.43
2022-10-17T20:21:28.670Z,13.15
2022-10-17T20:23:56.305Z,13.88
2022-10-17T20:26:36.600Z,12.73
2022-10-17T20:29:10.914Z,13.57
2022-10-17T20:31:40.475Z,13.32
2022-10-17T20:34:11.374Z,13.10
2022-10-17T20:36:40.332Z,13.32
2022-10-17T20:39:09.788Z,13.23
2022-10-17T20:41:37.274Z,14.00
2022-10-17T20:44:06.809Z,14.25
2022-10-17T20:46:37.279Z,13.98
2022-10-17T20:49:08.819Z,14.85
2022-10-17T20:51:36.439Z,14.93
2022-10-17T20:54:05.000Z,14.80
2022-10-17T20:56:34.114Z,13.75
2022-10-17T20:59:04.683Z,14.57
2022-10-17T21:01:34.942Z,14.65
2022-10-17T21:04:26.931Z,15.32
2022-10-17T21:06:54.263Z,15.07
2022-10-17T21:09:22.354Z,14.65
2022-10-17T21:11:55.668Z,15.15
2022-10-17T21:14:33.740Z,15.52
2022-10-17T21:17:04.917Z,15.23
2022-10-17T21:19:32.905Z,14.50
2022-10-17T21:22:00.742Z,15.30
2022-10-17T21:24:28.384Z,15.65
2022-10-17T21:26:57.141Z,14.95
2022-10-17T21:29:24.798Z,14.65
2022-10-17T21:31:52.735Z,15.32
2022-10-17T21:34:23.919Z,15.30
2022-10-17T21:36:52.267Z,15.10
2022-10-17T21:39:20.399Z,15.27
2022-10-17T21:41:47.906Z,14.52
2022-10-17T21:44:20.959Z,15.35
2022-10-17T21:46:49.191Z,15.75
2022-10-17T21:49:21.819Z,15.95
2022-10-17T21:51:49.887Z,15.30
2022-10-17T21:54:19.140Z,16.10
2022-10-17T21:56:46.829Z,16.25
2022-10-17T21:59:14.409Z,15.95
2022-10-17T22:01:44.128Z,15.63
2022-10-17T22:04:14.830Z,16.52
2022-10-17T22:06:44.277Z,16.60
2022-10-17T22:09:18.409Z,17.42
2022-10-17T22:11:48.335Z,15.93
2022-10-17T22:14:18.588Z,17.05
2022-10-17T22:16:47.349Z,17.30
2022-10-17T22:19:18.490Z,16.10
2022-10-17T22:21:46.230Z,16.10
2022-10-17T22:24:15.420Z,16.88
2022-10-17T22:26:44.519Z,15.00
2022-10-17T22:29:12.612Z,16.92
2022-10-17T22:31:40.850Z,15.60
2022-10-17T22:34:11.545Z,16.05
2022-10-17T22:36:39.092Z,15.45
2022-10-17T22:39:07.359Z,15.68
2022-10-17T22:41:34.893Z,15.05
2022-10-17T22:44:02.503Z,16.42
2022-10-17T22:46:30.046Z,16.90
2022-10-17T22:48:57.711Z,16.85
2022-10-17T22:51:26.179Z,17.35
2022-10-17T22:53:53.735Z,15.95
2022-10-17T22:56:22.859Z,16.17
2022-10-17T22:58:50.906Z,16.13
2022-10-17T23:01:21.691Z,17.63
2022-10-17T23:03:50.207Z,17.50
2022-10-17T23:06:18.349Z,17.70
2022-10-17T23:08:46.184Z,17.50
2022-10-17T23:11:14.165Z,17.52
2022-10-17T23:13:41.724Z,16.52
2022-10-17T23:16:09.691Z,17.33
2022-10-17T23:18:38.310Z,16.98
2022-10-17T23:21:06.752Z,16.88
2022-10-17T23:23:34.880Z,17.85
2022-10-17T23:26:08.097Z,16.98
2022-10-17T23:28:36.093Z,16.75
2022-10-17T23:31:16.620Z,17.52
2022-10-17T23:33:45.484Z,17.95
2022-10-17T23:36:15.110Z,17.48
2022-10-17T23:38:44.344Z,16.92
2022-10-17T23:41:12.653Z,17.75
2022-10-17T23:43:40.499Z,16.77
2022-10-17T23:46:08.740Z,17.20
2022-10-17T23:48:38.426Z,17.17
2022-10-17T23:51:07.720Z,17.17
2022-10-17T23:53:36.504Z,17.95
2022-10-17T23:56:05.115Z,17.98
2022-10-17T23:58:33.272Z,17.42
